Time;durP1;ratioP1;P1;durP2;ratioP2;P2;SDS_P1;SDS_P2;PMS_P1;PMS_P2;Temp;Humidity;BMP_temperature;BMP_pressure;BME280_temperature;BME280_humidity;BME280_pressure;Samples;Min_cycle;Max_cycle;Signal;HPM_P1;HPM_P2
2024/04/14 00:02:10;;;;;;;;;;;18.60;26.60;;;;;;5382436;26;19937;-69
2024/04/14 00:04:35;;;;;;;;;;;18.60;26.90;;;;;;5381970;26;19929;-70
2024/04/14 00:07:01;;;;;;;;;;;18.50;25.80;;;;;;5382055;26;19930;-68
2024/04/14 00:09:26;;;;;;;;;;;18.30;26.40;;;;;;5381995;26;19941;-69
2024/04/14 00:11:52;;;;;;;;;;;18.30;28.70;;;;;;5381963;26;19930;-69
2024/04/14 00:14:18;;;;;;;;;;;18.30;25.50;;;;;;5381886;26;19936;-70
2024/04/14 00:16:43;;;;;;;;;;;18.30;21.00;;;;;;5381907;26;20277;-69
2024/04/14 00:19:09;;;;;;;;;;;18.20;9.50;;;;;;5381778;26;19937;-68
2024/04/14 00:21:35;;;;;;;;;;;18.10;1.00;;;;;;5381523;26;19936;-69
2024/04/14 00:24:00;;;;;;;;;;;18.00;1.00;;;;;;5381784;26;19929;-69
2024/04/14 00:26:26;;;;;;;;;;;18.00;1.00;;;;;;5381787;26;19929;-70
2024/04/14 00:28:51;;;;;;;;;;;17.90;1.00;;;;;;5381460;26;19929;-68
2024/04/14 00:31:17;;;;;;;;;;;17.80;1.00;;;;;;5381287;26;19942;-69
2024/04/14 00:33:42;;;;;;;;;;;17.70;1.00;;;;;;5381695;26;19962;-69
2024/04/14 00:36:11;;;;;;;;;;;17.60;1.00;;;;;;5381731;26;19934;-69
2024/04/14 00:38:37;;;;;;;;;;;17.20;1.00;;;;;;5381614;26;19929;-69
2024/04/14 00:41:03;;;;;;;;;;;17.50;1.00;;;;;;5381113;26;20391;-69
2024/04/14 00:43:28;;;;;;;;;;;17.50;1.00;;;;;;5381473;26;19929;-69
2024/04/14 00:45:54;;;;;;;;;;;17.30;1.00;;;;;;5381529;26;19930;-68
2024/04/14 00:48:21;;;;;;;;;;;17.20;1.00;;;;;;5381514;26;20281;-69
2024/04/14 00:50:46;;;;;;;;;;;17.20;1.00;;;;;;5380886;26;20270;-70
2024/04/14 00:53:12;;;;;;;;;;;17.10;1.00;;;;;;5381014;26;19937;-69
2024/04/14 00:55:39;;;;;;;;;;;17.10;1.00;;;;;;5381468;26;19929;-69
2024/04/14 00:58:05;;;;;;;;;;;17.00;1.00;;;;;;5381311;26;19999;-69
2024/04/14 01:00:31;;;;;;;;;;;16.90;1.00;;;;;;5380795;26;20347;-70
2024/04/14 01:02:56;;;;;;;;;;;16.90;1.00;;;;;;5381341;26;19941;-69
2024/04/14 01:05:22;;;;;;;;;;;16.80;1.00;;;;;;5381227;26;19929;-68
2024/04/14 01:07:48;;;;;;;;;;;16.80;1.00;;;;;;5381273;26;19930;-69
2024/04/14 01:10:14;;;;;;;;;;;16.60;1.00;;;;;;5380772;26;19940;-69
2024/04/14 01:12:39;;;;;;;;;;;16.60;1.00;;;;;;5381115;26;19930;-69
2024/04/14 01:15:05;;;;;;;;;;;16.50;1.00;;;;;;5380971;26;19941;-70
2024/04/14 01:17:30;;;;;;;;;;;16.50;1.00;;;;;;5381173;26;20366;-68
2024/04/14 01:19:56;;;;;;;;;;;16.30;1.00;;;;;;5380530;26;19937;-69
2024/04/14 01:22:21;;;;;;;;;;;16.30;1.00;;;;;;5381006;26;19936;-69
2024/04/14 01:24:48;;;;;;;;;;;16.10;1.00;;;;;;5380798;26;19930;-70
2024/04/14 01:27:13;;;;;;;;;;;16.10;1.00;;;;;;5380921;26;19929;-69
2024/04/14 01:29:39;;;;;;;;;;;16.10;1.00;;;;;;5380248;26;19936;-69
2024/04/14 01:32:04;;;;;;;;;;;16.10;1.00;;;;;;5380807;26;19933;-68
2024/04/14 01:34:30;;;;;;;;;;;16.10;1.00;;;;;;5380881;26;19929;-69
2024/04/14 01:36:55;;;;;;;;;;;16.00;1.00;;;;;;5380746;26;19940;-69
2024/04/14 01:39:21;;;;;;;;;;;15.90;1.00;;;;;;5380334;26;19930;-70
2024/04/14 01:41:46;;;;;;;;;;;15.80;1.00;;;;;;5380778;26;20005;-69
2024/04/14 01:44:14;;;;;;;;;;;15.80;1.00;;;;;;5380440;26;20365;-69
2024/04/14 01:46:39;;;;;;;;;;;15.80;1.00;;;;;;5380664;26;19998;-70
2024/04/14 01:49:05;;;;;;;;;;;15.70;1.00;;;;;;5380543;26;19930;-69
2024/04/14 01:51:30;;;;;;;;;;;15.60;1.00;;;;;;5380368;26;19930;-69
2024/04/14 01:53:56;;;;;;;;;;;15.60;1.00;;;;;;5380527;26;19929;-69
2024/04/14 01:56:21;;;;;;;;;;;15.60;1.00;;;;;;5380427;26;20361;-69
2024/04/14 01:58:47;;;;;;;;;;;15.50;1.00;;;;;;5380317;26;19998;-69
2024/04/14 02:01:12;;;;;;;;;;;15.40;1.00;;;;;;5380097;26;20388;-69
2024/04/14 02:03:41;;;;;;;;;;;15.50;1.00;;;;;;5380212;26;19936;-69
2024/04/14 02:06:07;;;;;;;;;;;15.40;1.00;;;;;;5383216;26;19929;-69
2024/04/14 02:08:32;;;;;;;;;;;15.10;1.00;;;;;;5383566;26;19936;-69
2024/04/14 02:10:59;;;;;;;;;;;15.30;1.00;;;;;;5383264;26;19930;-69
2024/04/14 02:13:25;;;;;;;;;;;15.30;1.00;;;;;;5383707;26;20262;-69
2024/04/14 02:15:50;;;;;;;;;;;15.30;1.00;;;;;;5383562;26;19930;-69
2024/04/14 02:18:16;;;;;;;;;;;15.30;1.00;;;;;;5383512;26;19930;-69
2024/04/14 02:20:41;;;;;;;;;;;15.30;1.00;;;;;;5383158;26;19936;-69
2024/04/14 02:23:07;;;;;;;;;;;15.20;1.00;;;;;;5383423;26;19961;-69
2024/04/14 02:25:32;;;;;;;;;;;15.10;1.00;;;;;;5383471;26;20389;-69
2024/04/14 02:27:58;;;;;;;;;;;15.10;1.00;;;;;;5383401;26;19936;-69
2024/04/14 02:30:23;;;;;;;;;;;15.10;1.00;;;;;;5382873;26;19930;-69
2024/04/14 02:32:49;;;;;;;;;;;15.10;1.00;;;;;;5383478;26;20383;-69
2024/04/14 02:35:15;;;;;;;;;;;14.90;1.00;;;;;;5383296;26;19934;-69
2024/04/14 02:37:41;;;;;;;;;;;14.90;1.00;;;;;;5383418;26;19929;-69
2024/04/14 02:40:07;;;;;;;;;;;14.90;1.00;;;;;;5382810;26;20001;-69
2024/04/14 02:42:36;;;;;;;;;;;14.80;1.00;;;;;;5383183;26;19929;-69
2024/04/14 02:45:01;;;;;;;;;;;14.70;1.00;;;;;;5383100;26;19929;-69
2024/04/14 02:47:26;;;;;;;;;;;14.70;1.00;;;;;;5383200;26;19929;-69
2024/04/14 02:49:52;;;;;;;;;;;14.70;1.00;;;;;;5382697;26;19929;-69
2024/04/14 02:52:17;;;;;;;;;;;14.70;1.00;;;;;;5383171;26;19930;-69
2024/04/14 02:54:43;;;;;;;;;;;14.60;1.00;;;;;;5382931;26;19979;-69
2024/04/14 02:57:08;;;;;;;;;;;14.60;1.00;;;;;;5382936;26;19929;-69
2024/04/14 02:59:37;;;;;;;;;;;14.60;1.00;;;;;;5382509;26;19969;-69
2024/04/14 03:02:02;;;;;;;;;;;14.60;1.00;;;;;;5383080;26;19937;-69
2024/04/14 03:04:28;;;;;;;;;;;14.50;1.00;;;;;;5382951;26;19930;-69
2024/04/14 03:06:54;;;;;;;;;;;14.40;1.00;;;;;;5382883;26;19937;-69
2024/04/14 03:09:19;;;;;;;;;;;14.30;1.00;;;;;;5382305;26;19957;-69
2024/04/14 03:11:45;;;;;;;;;;;14.20;1.00;;;;;;5382842;26;19937;-69
2024/04/14 03:14:10;;;;;;;;;;;14.20;1.00;;;;;;5382772;26;19941;-69
2024/04/14 03:16:36;;;;;;;;;;;14.30;1.00;;;;;;5382656;26;19981;-69
2024/04/14 03:19:02;;;;;;;;;;;14.20;1.00;;;;;;5382816;26;19930;-69
2024/04/14 03:21:27;;;;;;;;;;;14.20;1.00;;;;;;5382344;26;20445;-69
2024/04/14 03:23:53;;;;;;;;;;;14.20;1.00;;;;;;5382608;26;20270;-69
2024/04/14 03:26:18;;;;;;;;;;;14.30;1.00;;;;;;5382589;26;19929;-69
2024/04/14 03:28:44;;;;;;;;;;;14.40;1.00;;;;;;5382421;26;20269;-69
2024/04/14 03:31:09;;;;;;;;;;;14.40;1.00;;;;;;5382307;26;19937;-69
2024/04/14 03:33:35;;;;;;;;;;;14.40;1.00;;;;;;5382600;26;19976;-69
2024/04/14 03:36:01;;;;;;;;;;;14.50;1.00;;;;;;5382650;26;19973;-69
2024/04/14 03:38:27;;;;;;;;;;;14.50;1.00;;;;;;5382374;26;19999;-69
2024/04/14 03:40:53;;;;;;;;;;;14.50;1.00;;;;;;5381951;26;20297;-69
2024/04/14 03:43:18;;;;;;;;;;;14.60;1.00;;;;;;5382504;26;19933;-69
2024/04/14 03:45:44;;;;;;;;;;;14.60;1.00;;;;;;5382521;26;19930;-69
2024/04/14 03:48:09;;;;;;;;;;;14.60;1.00;;;;;;5382410;26;19936;-69
2024/04/14 03:50:35;;;;;;;;;;;14.50;1.00;;;;;;5382032;26;19929;-69
2024/04/14 03:53:00;;;;;;;;;;;14.40;1.00;;;;;;5382357;26;20335;-69
2024/04/14 03:55:26;;;;;;;;;;;14.40;1.00;;;;;;5382089;26;19937;-69
2024/04/14 03:57:51;;;;;;;;;;;14.40;1.00;;;;;;5382268;26;20392;-69
2024/04/14 04:00:17;;;;;;;;;;;14.40;1.00;;;;;;5381724;26;19930;-69
2024/04/14 04:02:42;;;;;;;;;;;14.30;1.00;;;;;;5382091;26;19936;-69
2024/04/14 04:05:08;;;;;;;;;;;14.30;1.00;;;;;;5381927;26;19934;-69
2024/04/14 04:07:34;;;;;;;;;;;14.30;1.00;;;;;;5382055;26;19941;-69
2024/04/14 04:09:59;;;;;;;;;;;14.30;1.00;;;;;;5381519;26;19930;-69
2024/04/14 04:12:25;;;;;;;;;;;15.00;1.00;;;;;;5382017;26;19929;-69
2024/04/14 04:14:51;;;;;;;;;;;14.30;1.00;;;;;;5381912;26;19936;-69
2024/04/14 04:17:16;;;;;;;;;;;14.30;1.00;;;;;;5381903;26;19934;-69
2024/04/14 04:19:42;;;;;;;;;;;14.30;1.00;;;;;;5381397;26;19929;-69
2024/04/14 04:22:07;;;;;;;;;;;14.30;1.00;;;;;;5381730;26;19941;-69
2024/04/14 04:24:33;;;;;;;;;;;14.30;1.00;;;;;;5381722;26;19937;-69
2024/04/14 04:26:58;;;;;;;;;;;14.30;1.00;;;;;;5380989;26;19937;-69
2024/04/14 04:29:25;;;;;;;;;;;14.30;1.00;;;;;;5381086;26;19930;-69
2024/04/14 04:31:50;;;;;;;;;;;14.30;1.00;;;;;;5381849;26;19940;-69
2024/04/14 04:34:16;;;;;;;;;;;14.20;1.00;;;;;;5381665;26;19929;-69
2024/04/14 04:36:44;;;;;;;;;;;14.20;1.00;;;;;;5381470;26;20002;-69
2024/04/14 04:39:09;;;;;;;;;;;14.20;1.00;;;;;;5381404;26;19930;-69
2024/04/14 04:41:35;;;;;;;;;;;14.10;1.00;;;;;;5381267;26;19929;-69
2024/04/14 04:44:03;;;;;;;;;;;14.10;1.00;;;;;;5381572;26;19999;-69
2024/04/14 04:46:29;;;;;;;;;;;14.00;1.00;;;;;;5381566;26;19974;-69
2024/04/14 04:48:56;;;;;;;;;;;14.00;1.00;;;;;;5381448;26;19941;-69
2024/04/14 04:51:25;;;;;;;;;;;13.90;1.00;;;;;;5381014;26;19998;-69
2024/04/14 04:53:50;;;;;;;;;;;13.90;1.00;;;;;;5397778;26;20006;-69
2024/04/14 04:56:16;;;;;;;;;;;13.80;1.00;;;;;;5416939;26;19941;-69
2024/04/14 04:58:41;;;;;;;;;;;13.70;1.00;;;;;;5416728;26;19936;-69
2024/04/14 05:01:09;;;;;;;;;;;13.70;1.00;;;;;;5416469;26;20258;-69
2024/04/14 05:03:34;;;;;;;;;;;13.70;1.00;;;;;;5416907;26;19937;-69
2024/04/14 05:06:00;;;;;;;;;;;13.60;2.30;;;;;;5416779;26;20606;-69
2024/04/14 05:08:26;;;;;;;;;;;13.60;5.00;;;;;;5416498;26;20375;-69
2024/04/14 05:10:52;;;;;;;;;;;13.50;6.60;;;;;;5405865;26;19937;-69
2024/04/14 05:13:18;;;;;;;;;;;13.60;10.70;;;;;;5416659;26;19933;-69
2024/04/14 05:15:44;;;;;;;;;;;13.50;11.70;;;;;;5416676;26;19965;-69
2024/04/14 05:18:09;;;;;;;;;;;13.60;12.20;;;;;;5416641;26;20372;-69
2024/04/14 05:20:35;;;;;;;;;;;13.40;9.90;;;;;;5416097;26;19998;-69
2024/04/14 05:23:00;;;;;;;;;;;13.50;10.40;;;;;;5416433;26;19998;-69
2024/04/14 05:25:26;;;;;;;;;;;13.40;9.20;;;;;;5416398;26;19961;-68
2024/04/14 05:27:51;;;;;;;;;;;13.60;11.40;;;;;;5416448;26;19929;-69
2024/04/14 05:30:17;;;;;;;;;;;13.40;12.30;;;;;;5416061;26;19929;-69
2024/04/14 05:32:43;;;;;;;;;;;13.50;12.10;;;;;;5385001;26;19929;-69
2024/04/14 05:35:08;;;;;;;;;;;13.50;17.60;;;;;;5416149;26;20371;-69
2024/04/14 05:37:34;;;;;;;;;;;13.50;16.40;;;;;;5416209;26;20008;-69
2024/04/14 05:39:59;;;;;;;;;;;13.60;20.40;;;;;;5414154;26;20391;-69
2024/04/14 05:42:25;;;;;;;;;;;13.60;19.30;;;;;;5416309;26;19952;-69
2024/04/14 05:44:50;;;;;;;;;;;13.60;21.00;;;;;;5416109;26;19998;-69
2024/04/14 05:47:16;;;;;;;;;;;13.60;21.30;;;;;;5416017;26;19929;-69
2024/04/14 05:49:41;;;;;;;;;;;13.60;18.00;;;;;;5415535;26;20383;-69
2024/04/14 05:52:07;;;;;;;;;;;13.70;21.20;;;;;;5415976;26;19929;-69
2024/04/14 05:54:33;;;;;;;;;;;13.70;21.80;;;;;;5415958;26;19929;-69
2024/04/14 05:56:58;;;;;;;;;;;13.80;16.00;;;;;;5416015;26;19937;-69
2024/04/14 05:59:24;;;;;;;;;;;13.70;15.40;;;;;;5415415;26;19998;-69
2024/04/14 06:01:49;;;;;;;;;;;13.80;15.70;;;;;;5415874;26;19965;-69
2024/04/14 06:04:15;;;;;;;;;;;13.90;11.90;;;;;;5415728;26;19929;-69
2024/04/14 06:06:41;;;;;;;;;;;14.00;9.60;;;;;;5415653;26;19936;-69
2024/04/14 06:09:06;;;;;;;;;;;14.10;7.30;;;;;;5415796;26;19941;-69
2024/04/14 06:11:32;;;;;;;;;;;14.20;10.40;;;;;;5415190;26;19929;-69
2024/04/14 06:13:57;;;;;;;;;;;14.10;8.60;;;;;;5415608;26;19928;-69
2024/04/14 06:16:22;;;;;;;;;;;14.20;6.80;;;;;;5415543;26;19929;-69
2024/04/14 06:18:48;;;;;;;;;;;14.20;5.30;;;;;;5415509;26;19929;-69
2024/04/14 06:21:14;;;;;;;;;;;14.30;4.70;;;;;;5415017;26;19998;-69
2024/04/14 06:23:40;;;;;;;;;;;14.40;4.80;;;;;;5415385;26;19957;-69
2024/04/14 06:26:05;;;;;;;;;;;14.50;3.10;;;;;;5415563;26;19937;-69
2024/04/14 06:28:31;;;;;;;;;;;14.50;3.50;;;;;;5415196;26;19929;-69
2024/04/14 06:30:57;;;;;;;;;;;14.60;2.90;;;;;;5414930;26;19929;-69
2024/04/14 06:33:22;;;;;;;;;;;14.70;2.50;;;;;;5415104;26;19997;-69
2024/04/14 06:35:47;;;;;;;;;;;14.50;1.60;;;;;;5414885;26;19941;-69
2024/04/14 06:38:13;;;;;;;;;;;14.50;9.60;;;;;;5414435;26;20436;-69
2024/04/14 06:40:39;;;;;;;;;;;14.40;9.10;;;;;;5414460;26;19929;-69
2024/04/14 06:43:05;;;;;;;;;;;14.20;11.40;;;;;;5415084;26;19961;-69
2024/04/14 06:45:30;;;;;;;;;;;14.10;14.50;;;;;;5414829;26;20369;-69
2024/04/14 06:47:56;;;;;;;;;;;14.00;21.30;;;;;;5414851;26;19929;-69
2024/04/14 06:50:21;;;;;;;;;;;13.90;24.40;;;;;;5414721;26;19936;-69
2024/04/14 06:52:47;;;;;;;;;;;13.90;25.70;;;;;;5418506;26;19929;-69
2024/04/14 06:55:15;;;;;;;;;;;14.00;20.60;;;;;;5418516;26;19998;-69
2024/04/14 06:57:40;;;;;;;;;;;14.10;23.50;;;;;;5418408;26;19940;-69
2024/04/14 07:00:06;;;;;;;;;;;14.10;22.40;;;;;;5418018;26;19961;-69
2024/04/14 07:02:31;;;;;;;;;;;14.30;21.80;;;;;;5418507;26;19928;-69
2024/04/14 07:04:57;;;;;;;;;;;14.30;25.10;;;;;;5418243;26;19929;-69
2024/04/14 07:07:22;;;;;;;;;;;14.40;19.90;;;;;;5418424;26;20350;-69
2024/04/14 07:09:48;;;;;;;;;;;14.40;18.30;;;;;;5417874;26;19961;-69
2024/04/14 07:12:13;;;;;;;;;;;14.50;17.40;;;;;;5401478;26;20389;-69
2024/04/14 07:14:39;;;;;;;;;;;14.50;24.30;;;;;;5382011;26;19966;-69
2024/04/14 07:17:04;;;;;;;;;;;14.50;27.20;;;;;;5382457;26;19937;-69
2024/04/14 07:19:30;;;;;;;;;;;14.40;20.50;;;;;;5382178;26;20007;-69
2024/04/14 07:21:55;;;;;;;;;;;14.50;30.10;;;;;;5382605;26;19933;-69
2024/04/14 07:24:21;;;;;;;;;;;14.60;26.00;;;;;;5382536;26;19941;-69
2024/04/14 07:26:46;;;;;;;;;;;14.70;21.70;;;;;;5382648;26;19930;-69
2024/04/14 07:29:13;;;;;;;;;;;14.80;14.10;;;;;;5382441;26;19929;-69
2024/04/14 07:31:38;;;;;;;;;;;14.70;13.70;;;;;;5382226;26;19962;-69
2024/04/14 07:34:04;;;;;;;;;;;14.80;14.00;;;;;;5382482;26;19930;-69
2024/04/14 07:36:29;;;;;;;;;;;14.90;9.60;;;;;;5382426;26;19937;-69
2024/04/14 07:38:54;;;;;;;;;;;15.00;11.80;;;;;;5382478;26;19937;-69
2024/04/14 07:41:20;;;;;;;;;;;15.10;20.50;;;;;;5382051;26;19961;-69
2024/04/14 07:43:46;;;;;;;;;;;15.00;8.50;;;;;;5382259;26;19944;-69
2024/04/14 07:46:11;;;;;;;;;;;14.80;14.30;;;;;;5382360;26;19930;-69
2024/04/14 07:48:37;;;;;;;;;;;14.90;23.40;;;;;;5382124;26;20357;-69
2024/04/14 07:51:03;;;;;;;;;;;15.10;26.90;;;;;;5381860;26;19936;-69
2024/04/14 07:53:28;;;;;;;;;;;14.90;12.10;;;;;;5382342;26;20383;-69
2024/04/14 07:55:54;;;;;;;;;;;14.90;8.70;;;;;;5382211;26;19940;-69
2024/04/14 07:58:20;;;;;;;;;;;14.90;9.80;;;;;;5382147;26;20422;-69
2024/04/14 08:00:46;;;;;;;;;;;14.90;14.20;;;;;;5382149;26;19929;-69
2024/04/14 08:03:11;;;;;;;;;;;15.10;9.90;;;;;;5380988;26;19937;-70
2024/04/14 08:05:37;;;;;;;;;;;15.00;13.00;;;;;;5382164;26;19929;-70
2024/04/14 08:08:02;;;;;;;;;;;15.10;11.00;;;;;;5382273;26;19937;-70
2024/04/14 08:10:28;;;;;;;;;;;15.10;7.10;;;;;;5381944;26;20272;-69
2024/04/14 08:12:53;;;;;;;;;;;15.00;10.70;;;;;;5382021;26;19937;-69
2024/04/14 08:15:18;;;;;;;;;;;15.00;17.10;;;;;;5380488;26;19959;-69
2024/04/14 08:17:44;;;;;;;;;;;15.10;17.70;;;;;;5381965;26;19940;-69
2024/04/14 08:20:11;;;;;;;;;;;15.20;8.60;;;;;;5350638;26;19938;-69
2024/04/14 08:22:36;;;;;;;;;;;15.30;9.80;;;;;;5381699;26;19929;-69
2024/04/14 08:25:02;;;;;;;;;;;15.60;4.90;;;;;;5381866;26;19936;-69
2024/04/14 08:27:27;;;;;;;;;;;15.50;7.00;;;;;;5381984;26;19929;-69
2024/04/14 08:29:53;;;;;;;;;;;15.60;7.60;;;;;;5381126;26;19937;-69
2024/04/14 08:32:19;;;;;;;;;;;15.50;13.30;;;;;;5381926;26;19940;-69
2024/04/14 08:34:44;;;;;;;;;;;15.40;9.30;;;;;;5381420;26;19937;-69
2024/04/14 08:37:10;;;;;;;;;;;15.20;19.80;;;;;;5381824;26;20370;-69
2024/04/14 08:39:35;;;;;;;;;;;15.50;3.70;;;;;;5381268;26;19937;-69
2024/04/14 08:42:05;;;;;;;;;;;15.20;13.10;;;;;;5381661;26;19973;-69
2024/04/14 08:44:32;;;;;;;;;;;15.10;4.20;;;;;;5381776;26;19930;-69
2024/04/14 08:46:57;;;;;;;;;;;15.20;8.60;;;;;;5381656;26;19937;-69
2024/04/14 08:49:23;;;;;;;;;;;15.30;6.00;;;;;;5381021;26;19930;-69
2024/04/14 08:51:49;;;;;;;;;;;15.30;1.00;;;;;;5381606;26;19930;-69
2024/04/14 08:54:14;;;;;;;;;;;15.30;1.00;;;;;;5381438;26;19938;-69
2024/04/14 08:56:40;;;;;;;;;;;15.10;1.00;;;;;;5381237;26;19978;-69
2024/04/14 08:59:06;;;;;;;;;;;14.90;1.90;;;;;;5381350;26;20335;-69
2024/04/14 09:01:33;;;;;;;;;;;14.90;1.00;;;;;;5390202;26;19936;-69
2024/04/14 09:04:00;;;;;;;;;;;14.90;1.00;;;;;;5381102;26;19938;-69
2024/04/14 09:06:26;;;;;;;;;;;15.10;1.00;;;;;;5381124;26;19936;-69
2024/04/14 09:08:52;;;;;;;;;;;15.00;1.00;;;;;;5381106;26;19999;-69
2024/04/14 09:11:17;;;;;;;;;;;15.10;1.00;;;;;;5380879;26;20419;-69
2024/04/14 09:13:43;;;;;;;;;;;15.10;1.00;;;;;;5380758;26;19935;-69
2024/04/14 09:16:10;;;;;;;;;;;15.50;1.00;;;;;;5380967;26;19945;-69
2024/04/14 09:18:38;;;;;;;;;;;15.30;1.00;;;;;;5380968;26;19930;-69
2024/04/14 09:21:03;;;;;;;;;;;15.30;1.00;;;;;;5380561;26;20270;-69
2024/04/14 09:23:29;;;;;;;;;;;15.50;1.00;;;;;;5381006;26;19981;-69
2024/04/14 09:25:54;;;;;;;;;;;15.20;1.00;;;;;;5380943;26;19956;-69
2024/04/14 09:28:20;;;;;;;;;;;15.60;1.00;;;;;;5380959;26;19930;-69
2024/04/14 09:30:45;;;;;;;;;;;15.60;1.00;;;;;;5380475;26;19937;-69
2024/04/14 09:33:11;;;;;;;;;;;16.00;1.00;;;;;;5380858;26;20277;-69
2024/04/14 09:35:37;;;;;;;;;;;16.20;1.00;;;;;;5380966;26;19966;-69
2024/04/14 09:38:04;;;;;;;;;;;16.20;1.00;;;;;;5380735;26;20351;-69
2024/04/14 09:40:31;;;;;;;;;;;16.20;1.00;;;;;;5380290;26;19930;-69
2024/04/14 09:42:59;;;;;;;;;;;16.20;1.00;;;;;;5380722;26;19929;-69
2024/04/14 09:45:28;;;;;;;;;;;16.30;1.00;;;;;;5380788;26;19933;-69
2024/04/14 09:47:55;;;;;;;;;;;16.40;1.00;;;;;;5380631;26;19930;-68
2024/04/14 09:50:21;;;;;;;;;;;16.30;1.00;;;;;;5379877;26;20254;-69
2024/04/14 09:52:50;;;;;;;;;;;16.50;1.00;;;;;;5380428;26;19936;-69
2024/04/14 09:55:15;;;;;;;;;;;16.40;1.00;;;;;;5380298;26;20431;-70
2024/04/14 09:57:41;;;;;;;;;;;16.70;1.00;;;;;;5381331;26;19957;-69
2024/04/14 10:00:08;;;;;;;;;;;16.90;1.00;;;;;;5380695;26;20388;-70
2024/04/14 10:02:34;;;;;;;;;;;16.70;1.00;;;;;;5381171;26;20372;-70
2024/04/14 10:05:02;;;;;;;;;;;16.90;1.00;;;;;;5402496;26;20358;-69
2024/04/14 10:07:27;;;;;;;;;;;16.80;1.00;;;;;;5416190;26;19929;-70
2024/04/14 10:09:55;;;;;;;;;;;17.40;1.00;;;;;;5415576;26;19935;-70
2024/04/14 10:12:21;;;;;;;;;;;17.20;1.00;;;;;;5415875;26;19929;-70
2024/04/14 10:14:49;;;;;;;;;;;17.50;1.00;;;;;;5416582;26;20001;-69
2024/04/14 10:17:18;;;;;;;;;;;17.80;1.00;;;;;;5416015;26;19998;-70
2024/04/14 10:19:56;;;;;;;;;;;17.90;1.00;;;;;;5416009;26;20365;-70
2024/04/14 10:22:31;;;;;;;;;;;17.30;1.00;;;;;;5416142;26;20359;-70
2024/04/14 10:24:57;;;;;;;;;;;16.30;1.00;;;;;;5415457;26;20376;-69
2024/04/14 10:27:23;;;;;;;;;;;17.30;1.00;;;;;;5419182;26;19940;-69
2024/04/14 10:29:58;;;;;;;;;;;17.30;1.00;;;;;;5419320;26;19965;-70
2024/04/14 10:32:24;;;;;;;;;;;17.70;1.00;;;;;;5419490;26;19962;-70
2024/04/14 10:34:49;;;;;;;;;;;17.70;1.00;;;;;;5388353;26;19999;-70
2024/04/14 10:37:28;;;;;;;;;;;17.80;1.00;;;;;;5419926;26;20361;-70
2024/04/14 10:39:54;;;;;;;;;;;17.90;1.00;;;;;;5419266;26;20346;-70
2024/04/14 10:42:20;;;;;;;;;;;18.10;1.00;;;;;;5419654;26;19929;-69
2024/04/14 10:44:46;;;;;;;;;;;17.90;1.00;;;;;;5419465;26;19929;-69
2024/04/14 10:47:16;;;;;;;;;;;17.40;1.00;;;;;;5419577;26;19929;-70
2024/04/14 10:49:42;;;;;;;;;;;17.20;1.00;;;;;;5419569;26;19941;-70
2024/04/14 10:52:07;;;;;;;;;;;17.30;1.00;;;;;;5420847;26;19987;-69
2024/04/14 10:54:33;;;;;;;;;;;16.60;1.00;;;;;;5420404;26;19937;-69
2024/04/14 10:56:58;;;;;;;;;;;16.40;1.00;;;;;;5420058;26;20257;-69
2024/04/14 10:59:25;;;;;;;;;;;16.50;1.00;;;;;;5418752;26;19929;-70
2024/04/14 11:01:52;;;;;;;;;;;16.50;1.00;;;;;;5419347;26;19936;-70
2024/04/14 11:04:17;;;;;;;;;;;16.50;1.00;;;;;;5419223;26;19929;-69
2024/04/14 11:06:44;;;;;;;;;;;16.50;1.00;;;;;;5419753;26;19936;-70
2024/04/14 11:09:13;;;;;;;;;;;16.50;1.00;;;;;;5419285;26;19929;-69
2024/04/14 11:11:38;;;;;;;;;;;16.60;1.00;;;;;;5418582;26;19929;-70
2024/04/14 11:14:04;;;;;;;;;;;16.80;1.00;;;;;;5419360;26;19936;-70
2024/04/14 11:16:31;;;;;;;;;;;16.90;1.00;;;;;;5418884;26;20338;-69
2024/04/14 11:18:56;;;;;;;;;;;16.90;1.00;;;;;;5418649;26;19936;-70
2024/04/14 11:21:27;;;;;;;;;;;17.20;1.00;;;;;;5418863;26;19936;-70
2024/04/14 11:23:54;;;;;;;;;;;17.50;1.00;;;;;;5419159;26;20019;-70
2024/04/14 11:26:19;;;;;;;;;;;17.60;1.00;;;;;;5418986;26;19929;-68
2024/04/14 11:28:45;;;;;;;;;;;17.60;1.00;;;;;;5418826;26;19935;-70
2024/04/14 11:31:11;;;;;;;;;;;17.40;1.00;;;;;;5418485;26;19940;-70
2024/04/14 11:33:41;;;;;;;;;;;17.10;1.00;;;;;;5418682;26;20006;-69
2024/04/14 11:36:10;;;;;;;;;;;17.00;1.00;;;;;;5417947;26;19939;-69
2024/04/14 11:38:36;;;;;;;;;;;16.90;1.00;;;;;;5417854;26;20377;-69
2024/04/14 11:41:02;;;;;;;;;;;17.00;1.00;;;;;;5417583;26;19929;-70
2024/04/14 11:43:28;;;;;;;;;;;16.90;1.00;;;;;;5417838;26;19929;-70
2024/04/14 11:45:53;;;;;;;;;;;17.10;1.00;;;;;;5417733;26;20272;-69
2024/04/14 11:48:24;;;;;;;;;;;17.20;1.00;;;;;;5417805;26;19997;-69
2024/04/14 11:50:52;;;;;;;;;;;17.10;1.00;;;;;;5417526;26;19936;-69
2024/04/14 11:53:18;;;;;;;;;;;17.10;1.00;;;;;;5417700;26;19929;-69
2024/04/14 11:55:43;;;;;;;;;;;16.90;1.00;;;;;;5417862;26;19929;-69
2024/04/14 11:58:12;;;;;;;;;;;17.00;1.00;;;;;;5417670;26;19929;-69
2024/04/14 12:00:40;;;;;;;;;;;16.70;1.00;;;;;;5417150;26;19929;-69
2024/04/14 12:03:06;;;;;;;;;;;16.40;1.00;;;;;;5417522;26;19936;-69
2024/04/14 12:05:31;;;;;;;;;;;16.30;1.00;;;;;;5417614;26;19929;-69
2024/04/14 12:07:56;;;;;;;;;;;16.30;1.00;;;;;;5417494;26;19928;-69
2024/04/14 12:10:22;;;;;;;;;;;16.30;1.00;;;;;;5417142;26;20361;-70
2024/04/14 12:12:48;;;;;;;;;;;16.30;1.00;;;;;;5417480;26;19941;-69
2024/04/14 12:15:13;;;;;;;;;;;16.40;1.00;;;;;;5417369;26;19936;-69
2024/04/14 12:17:39;;;;;;;;;;;16.40;1.00;;;;;;5417417;26;20027;-69
2024/04/14 12:20:04;;;;;;;;;;;16.40;1.00;;;;;;5416877;26;19929;-70
2024/04/14 12:22:30;;;;;;;;;;;16.40;1.00;;;;;;5417252;26;19933;-69
2024/04/14 12:24:55;;;;;;;;;;;16.50;1.00;;;;;;5417207;26;19929;-69
2024/04/14 12:27:21;;;;;;;;;;;16.60;1.00;;;;;;5417162;26;19955;-69
2024/04/14 12:29:47;;;;;;;;;;;16.70;1.00;;;;;;5416629;26;19929;-70
2024/04/14 12:32:13;;;;;;;;;;;16.70;1.00;;;;;;5417318;26;19936;-70
2024/04/14 12:34:38;;;;;;;;;;;16.70;1.00;;;;;;5417396;26;20393;-69
2024/04/14 12:37:04;;;;;;;;;;;16.90;1.00;;;;;;5417253;26;19963;-69
2024/04/14 12:39:29;;;;;;;;;;;17.10;1.00;;;;;;5416946;26;19941;-69
2024/04/14 12:41:55;;;;;;;;;;;17.10;1.00;;;;;;5417139;26;19933;-69
2024/04/14 12:44:21;;;;;;;;;;;17.30;1.00;;;;;;5416994;26;19939;-69
2024/04/14 12:46:46;;;;;;;;;;;17.40;1.00;;;;;;5417176;26;19936;-69
2024/04/14 12:49:13;;;;;;;;;;;17.50;1.00;;;;;;5416149;26;19936;-69
2024/04/14 12:51:38;;;;;;;;;;;17.60;1.00;;;;;;5416653;26;20266;-69
2024/04/14 12:54:04;;;;;;;;;;;18.00;1.00;;;;;;5416887;26;19929;-69
2024/04/14 12:56:29;;;;;;;;;;;18.20;1.00;;;;;;5417041;26;20261;-69
2024/04/14 12:58:55;;;;;;;;;;;18.20;1.00;;;;;;5416802;26;19929;-69
2024/04/14 13:01:20;;;;;;;;;;;18.20;1.00;;;;;;5416615;26;20360;-69
2024/04/14 13:03:46;;;;;;;;;;;18.10;1.00;;;;;;5416860;26;19936;-69
2024/04/14 13:06:11;;;;;;;;;;;17.90;1.00;;;;;;5416933;26;19929;-69
2024/04/14 13:08:37;;;;;;;;;;;17.60;1.00;;;;;;5416859;26;20083;-69
2024/04/14 13:11:02;;;;;;;;;;;17.60;1.00;;;;;;5416511;26;19956;-69
2024/04/14 13:13:28;;;;;;;;;;;18.20;1.00;;;;;;5416857;26;19972;-69
2024/04/14 13:15:53;;;;;;;;;;;18.70;1.00;;;;;;5417020;26;19936;-69
2024/04/14 13:18:19;;;;;;;;;;;18.80;1.00;;;;;;5416709;26;19933;-69
2024/04/14 13:20:44;;;;;;;;;;;18.10;1.00;;;;;;5416492;26;19929;-69
2024/04/14 13:23:10;;;;;;;;;;;17.70;1.00;;;;;;5416599;26;19929;-69
2024/04/14 13:25:35;;;;;;;;;;;17.80;1.00;;;;;;5416544;26;19933;-69
2024/04/14 13:28:02;;;;;;;;;;;18.20;1.00;;;;;;5415405;26;20259;-69
2024/04/14 13:30:28;;;;;;;;;;;18.60;1.00;;;;;;5416110;26;20006;-69
2024/04/14 13:32:53;;;;;;;;;;;19.10;1.00;;;;;;5416109;26;19929;-69
2024/04/14 13:35:20;;;;;;;;;;;19.30;1.00;;;;;;5416401;26;19945;-69
2024/04/14 13:37:45;;;;;;;;;;;19.50;1.00;;;;;;5416587;26;20645;-69
2024/04/14 13:40:11;;;;;;;;;;;19.30;1.00;;;;;;5415952;26;19929;-69
2024/04/14 13:42:37;;;;;;;;;;;18.90;1.00;;;;;;5416211;26;19964;-69
2024/04/14 13:45:03;;;;;;;;;;;18.70;1.00;;;;;;5416531;26;20327;-69
2024/04/14 13:47:28;;;;;;;;;;;18.20;1.00;;;;;;5416194;26;19998;-69
2024/04/14 13:49:54;;;;;;;;;;;18.40;1.00;;;;;;5415760;26;19936;-69
2024/04/14 13:52:26;;;;;;;;;;;18.70;1.00;;;;;;5416356;26;20394;-69
2024/04/14 13:54:53;;;;;;;;;;;18.90;1.00;;;;;;5416022;26;19929;-69
2024/04/14 13:57:18;;;;;;;;;;;18.60;1.00;;;;;;5393581;26;19930;-67
2024/04/14 13:59:44;;;;;;;;;;;18.50;1.00;;;;;;5379555;26;19936;-69
2024/04/14 14:02:09;;;;;;;;;;;18.50;1.00;;;;;;5379896;26;19929;-68
2024/04/14 14:04:35;;;;;;;;;;;18.60;1.00;;;;;;5380227;26;19929;-68
2024/04/14 14:07:00;;;;;;;;;;;18.60;1.00;;;;;;5379743;26;19929;-68
2024/04/14 14:09:26;;;;;;;;;;;19.00;1.00;;;;;;5382260;26;19929;-69
2024/04/14 14:11:51;;;;;;;;;;;19.10;1.00;;;;;;5397877;26;20941;-70
2024/04/14 14:14:17;;;;;;;;;;;18.90;1.00;;;;;;5393834;26;19999;-68
2024/04/14 14:16:42;;;;;;;;;;;18.60;1.00;;;;;;5379775;26;19941;-69
2024/04/14 14:19:08;;;;;;;;;;;18.60;1.00;;;;;;5379457;26;20002;-68
2024/04/14 14:21:34;;;;;;;;;;;18.60;1.00;;;;;;5385927;26;20381;-69